Time;durP1;ratioP1;P1;durP2;ratioP2;P2;SDS_P1;SDS_P2;PMS_P1;PMS_P2;Temp;Humidity;BMP_temperature;BMP_pressure;BME280_temperature;BME280_humidity;BME280_pressure;Samples;Min_cycle;Max_cycle;Signal;HPM_P1;HPM_P2
2023/02/21 02:15:57;;;;;;;62.95;33.42;;;;;;;;;;5052002;28;20264;-67
2023/02/21 02:18:56;;;;;;;60.22;33.33;;;;;;;;;;5050328;28;20585;-67
2023/02/21 02:21:59;;;;;;;62.53;34.28;;;;;;;;;;5055298;28;20189;-67
2023/02/21 02:24:59;;;;;;;61.00;32.78;;;;;;;;;;5046141;28;20300;-67
2023/02/21 02:28:18;;;;;;;55.90;32.17;;;;;;;;;;5049833;28;20182;-67
2023/02/21 02:31:01;;;;;;;57.50;32.88;;;;;;;;;;5049134;28;20209;-68
2023/02/21 02:33:35;;;;;;;65.93;32.78;;;;;;;;;;5060466;28;20193;-67
2023/02/21 02:36:17;;;;;;;65.70;32.95;;;;;;;;;;5055865;28;20197;-67
2023/02/21 02:38:58;;;;;;;58.65;32.75;;;;;;;;;;5056661;28;20191;-67
2023/02/21 02:41:38;;;;;;;62.75;33.50;;;;;;;;;;5053034;28;20331;-67
2023/02/21 02:44:13;;;;;;;66.35;33.90;;;;;;;;;;5055101;28;20196;-67
2023/02/21 02:46:40;;;;;;;61.88;33.17;;;;;;;;;;5055992;28;20387;-67
2023/02/21 02:49:15;;;;;;;60.55;33.08;;;;;;;;;;5053681;28;20425;-67
2023/02/21 02:51:40;;;;;;;66.82;33.10;;;;;;;;;;5053196;28;20314;-67
2023/02/21 02:54:05;;;;;;;63.40;33.53;;;;;;;;;;5058018;28;20472;-67
2023/02/21 02:56:32;;;;;;;61.53;31.75;;;;;;;;;;5061879;28;20332;-68
2023/02/21 02:59:04;;;;;;;58.15;30.80;;;;;;;;;;5056599;28;20182;-67
2023/02/21 03:01:48;;;;;;;62.17;32.65;;;;;;;;;;5054000;28;20315;-67
2023/02/21 03:04:37;;;;;;;65.65;32.63;;;;;;;;;;5050660;28;20258;-67
2023/02/21 03:07:20;;;;;;;57.67;31.60;;;;;;;;;;5049694;28;20212;-66
2023/02/21 03:10:11;;;;;;;68.47;33.83;;;;;;;;;;5068518;28;20246;-67
2023/02/21 03:12:58;;;;;;;64.90;32.63;;;;;;;;;;5046085;28;20298;-68
2023/02/21 03:15:29;;;;;;;55.95;31.70;;;;;;;;;;5063237;28;20180;-67
2023/02/21 03:18:13;;;;;;;59.42;31.15;;;;;;;;;;5054814;28;20904;-67
2023/02/21 03:20:41;;;;;;;69.97;32.65;;;;;;;;;;5060235;28;20196;-68
2023/02/21 03:23:09;;;;;;;58.50;30.58;;;;;;;;;;5053555;28;20671;-67
2023/02/21 03:25:37;;;;;;;63.75;33.65;;;;;;;;;;5060808;28;20210;-67
2023/02/21 03:28:02;;;;;;;68.85;33.38;;;;;;;;;;5062687;28;20229;-66
2023/02/21 03:30:28;;;;;;;59.55;31.77;;;;;;;;;;5057211;28;20550;-67
2023/02/21 03:32:54;;;;;;;64.10;32.00;;;;;;;;;;5048694;28;20262;-67
2023/02/21 03:35:21;;;;;;;64.85;32.33;;;;;;;;;;5051346;28;20578;-67
2023/02/21 03:37:48;;;;;;;61.47;32.95;;;;;;;;;;5053274;28;20208;-67
2023/02/21 03:40:17;;;;;;;61.25;31.45;;;;;;;;;;5053081;28;20212;-67
2023/02/21 03:42:42;;;;;;;60.75;32.78;;;;;;;;;;5052255;28;20187;-67
2023/02/21 03:45:09;;;;;;;64.55;33.03;;;;;;;;;;5063851;28;20393;-67
2023/02/21 03:47:34;;;;;;;60.03;31.65;;;;;;;;;;5052413;28;20273;-67
2023/02/21 03:50:00;;;;;;;68.05;33.50;;;;;;;;;;5052606;28;20720;-67
2023/02/21 03:52:25;;;;;;;61.08;32.35;;;;;;;;;;5052458;28;20270;-67
2023/02/21 03:54:51;;;;;;;64.28;33.35;;;;;;;;;;5056203;28;20197;-67
2023/02/21 03:57:16;;;;;;;60.47;32.50;;;;;;;;;;5048206;28;20190;-67
2023/02/21 03:59:42;;;;;;;63.17;33.42;;;;;;;;;;5047962;28;20197;-68
2023/02/21 04:02:07;;;;;;;57.47;31.67;;;;;;;;;;5049991;28;20186;-67
2023/02/21 04:04:33;;;;;;;61.85;31.92;;;;;;;;;;5048153;28;20254;-67
2023/02/21 04:06:58;;;;;;;65.88;33.13;;;;;;;;;;5058283;28;20190;-67
2023/02/21 04:09:25;;;;;;;68.40;33.08;;;;;;;;;;5056582;28;20212;-67
2023/02/21 04:11:50;;;;;;;63.92;32.30;;;;;;;;;;5051574;28;20213;-67
2023/02/21 04:14:16;;;;;;;71.28;34.38;;;;;;;;;;5049199;28;20205;-67
2023/02/21 04:16:41;;;;;;;62.85;31.90;;;;;;;;;;5058168;28;20197;-67
2023/02/21 04:19:07;;;;;;;62.70;32.72;;;;;;;;;;5060138;28;20256;-67
2023/02/21 04:21:32;;;;;;;68.50;33.42;;;;;;;;;;5055197;28;20229;-67
2023/02/21 04:23:58;;;;;;;72.20;34.45;;;;;;;;;;5060859;28;20261;-67
2023/02/21 04:26:23;;;;;;;69.40;32.90;;;;;;;;;;5067459;28;20192;-67
2023/02/21 04:28:52;;;;;;;66.45;33.22;;;;;;;;;;5061223;28;20236;-67
2023/02/21 04:31:18;;;;;;;67.97;33.80;;;;;;;;;;5051090;28;20676;-67
2023/02/21 04:33:44;;;;;;;64.20;32.25;;;;;;;;;;5048077;28;20267;-67
2023/02/21 04:36:09;;;;;;;71.07;34.10;;;;;;;;;;5055128;28;20198;-67
2023/02/21 04:38:36;;;;;;;65.60;34.38;;;;;;;;;;5047350;28;20186;-67
2023/02/21 04:41:02;;;;;;;72.65;34.70;;;;;;;;;;5054999;28;20234;-67
2023/02/21 04:43:28;;;;;;;69.50;33.78;;;;;;;;;;5051820;28;20258;-67
2023/02/21 04:45:53;;;;;;;67.78;34.72;;;;;;;;;;5060073;28;20668;-67
2023/02/21 04:48:19;;;;;;;66.07;33.03;;;;;;;;;;5050043;28;20299;-67
2023/02/21 04:50:45;;;;;;;70.40;34.03;;;;;;;;;;5054369;28;20215;-67
2023/02/21 04:53:10;;;;;;;68.68;34.33;;;;;;;;;;5063516;28;20207;-67
2023/02/21 04:55:35;;;;;;;72.88;35.80;;;;;;;;;;5063003;28;20185;-67
2023/02/21 04:58:01;;;;;;;74.10;35.40;;;;;;;;;;5059197;28;20661;-67
2023/02/21 05:00:26;;;;;;;71.13;35.25;;;;;;;;;;5062654;28;20279;-67
2023/02/21 05:02:51;;;;;;;71.97;34.40;;;;;;;;;;5054491;28;20204;-67
2023/02/21 05:05:17;;;;;;;75.85;35.25;;;;;;;;;;5053361;28;20197;-67
2023/02/21 05:07:43;;;;;;;70.53;34.70;;;;;;;;;;5057316;28;20185;-67
2023/02/21 05:10:09;;;;;;;77.07;35.38;;;;;;;;;;5052485;28;20659;-67
2023/02/21 05:12:38;;;;;;;72.38;34.55;;;;;;;;;;5053100;28;20197;-67
2023/02/21 05:15:04;;;;;;;74.43;36.58;;;;;;;;;;5057959;28;20636;-67
2023/02/21 05:17:29;;;;;;;81.70;34.80;;;;;;;;;;5058578;28;20293;-68
2023/02/21 05:19:55;;;;;;;74.60;36.35;;;;;;;;;;5054979;28;20208;-67
2023/02/21 05:22:20;;;;;;;69.40;35.08;;;;;;;;;;5050555;28;20184;-67
2023/02/21 05:24:47;;;;;;;74.97;36.13;;;;;;;;;;5051611;28;20197;-67
2023/02/21 05:27:14;;;;;;;78.20;34.75;;;;;;;;;;5049823;28;20264;-67
2023/02/21 05:29:41;;;;;;;80.68;36.95;;;;;;;;;;5059166;28;20228;-67
2023/02/21 05:32:07;;;;;;;81.70;37.22;;;;;;;;;;5056667;28;20220;-67
2023/02/21 05:34:32;;;;;;;76.20;37.47;;;;;;;;;;5059128;28;20241;-67
2023/02/21 05:36:57;;;;;;;81.20;38.65;;;;;;;;;;5051545;28;20747;-67
2023/02/21 05:39:23;;;;;;;75.50;37.40;;;;;;;;;;5051931;28;20189;-67
2023/02/21 05:41:50;;;;;;;83.28;37.45;;;;;;;;;;5049141;28;20706;-67
2023/02/21 05:44:16;;;;;;;80.00;38.38;;;;;;;;;;5045903;28;20649;-67
2023/02/21 05:46:41;;;;;;;83.15;38.05;;;;;;;;;;5061272;28;20201;-67
2023/02/21 05:49:07;;;;;;;84.53;38.50;;;;;;;;;;5058919;28;20192;-67
2023/02/21 05:51:35;;;;;;;85.15;37.20;;;;;;;;;;5053173;28;20548;-67
2023/02/21 05:54:00;;;;;;;86.18;41.03;;;;;;;;;;5045796;28;20258;-67
2023/02/21 05:56:26;;;;;;;79.13;38.67;;;;;;;;;;5058189;28;20220;-67
2023/02/21 05:58:51;;;;;;;89.10;37.55;;;;;;;;;;5059205;28;20559;-67
2023/02/21 06:01:16;;;;;;;87.10;38.13;;;;;;;;;;5053480;28;20212;-67
2023/02/21 06:03:42;;;;;;;89.07;39.88;;;;;;;;;;5061087;28;20199;-67
2023/02/21 06:06:08;;;;;;;89.20;37.97;;;;;;;;;;5062094;28;20523;-67
2023/02/21 06:08:48;;;;;;;87.22;39.75;;;;;;;;;;5051907;28;20545;-67
2023/02/21 06:11:14;;;;;;;96.40;40.75;;;;;;;;;;5055547;28;20752;-67
2023/02/21 06:13:40;;;;;;;95.38;39.42;;;;;;;;;;5065873;28;20253;-67
2023/02/21 06:16:06;;;;;;;106.60;42.38;;;;;;;;;;5062391;28;20192;-67
2023/02/21 06:18:32;;;;;;;99.60;41.25;;;;;;;;;;5061774;28;20196;-67
2023/02/21 06:20:57;;;;;;;99.00;42.28;;;;;;;;;;5054919;28;20189;-67
2023/02/21 06:23:22;;;;;;;101.50;41.35;;;;;;;;;;5059299;28;20204;-67
2023/02/21 06:25:48;;;;;;;103.10;41.58;;;;;;;;;;5056633;28;20192;-67
2023/02/21 06:28:13;;;;;;;113.32;41.97;;;;;;;;;;5060511;28;20570;-67
2023/02/21 06:30:38;;;;;;;114.25;43.28;;;;;;;;;;5056227;28;20228;-67
2023/02/21 06:33:04;;;;;;;110.57;42.85;;;;;;;;;;5055605;28;20192;-66
2023/02/21 06:35:29;;;;;;;111.43;42.63;;;;;;;;;;5057876;28;20250;-66
2023/02/21 06:37:55;;;;;;;109.82;44.50;;;;;;;;;;5061003;28;20644;-68
2023/02/21 06:40:20;;;;;;;114.80;43.53;;;;;;;;;;5056960;28;20205;-66
2023/02/21 06:42:45;;;;;;;111.25;41.58;;;;;;;;;;5059819;28;20256;-67
2023/02/21 06:45:11;;;;;;;119.93;43.45;;;;;;;;;;5056782;28;20188;-67
2023/02/21 06:47:36;;;;;;;119.32;43.85;;;;;;;;;;5055498;28;20595;-68
2023/02/21 06:50:02;;;;;;;137.45;45.22;;;;;;;;;;5055457;28;20200;-68
2023/02/21 06:52:30;;;;;;;116.07;43.22;;;;;;;;;;5052461;28;20209;-68
2023/02/21 06:54:55;;;;;;;118.60;43.53;;;;;;;;;;5052769;28;20195;-67
2023/02/21 06:57:20;;;;;;;120.68;45.33;;;;;;;;;;5056831;28;20648;-68
2023/02/21 06:59:46;;;;;;;116.65;44.47;;;;;;;;;;5052613;28;20258;-68
2023/02/21 07:02:18;;;;;;;110.57;43.03;;;;;;;;;;5059705;28;20560;-68
2023/02/21 07:04:44;;;;;;;121.72;44.83;;;;;;;;;;5056033;28;20194;-68
2023/02/21 07:07:10;;;;;;;130.75;45.58;;;;;;;;;;5053859;28;20240;-68
2023/02/21 07:09:35;;;;;;;135.77;44.67;;;;;;;;;;5056816;28;20644;-67
2023/02/21 07:12:02;;;;;;;136.02;46.13;;;;;;;;;;5056520;28;20216;-67
2023/02/21 07:14:27;;;;;;;127.90;45.45;;;;;;;;;;5051052;28;20185;-66
2023/02/21 07:16:52;;;;;;;129.43;45.08;;;;;;;;;;5050597;28;20230;-66
2023/02/21 07:19:18;;;;;;;126.03;45.40;;;;;;;;;;5057796;28;20355;-66
2023/02/21 07:21:44;;;;;;;127.15;45.38;;;;;;;;;;5047964;28;20181;-66
2023/02/21 07:24:09;;;;;;;127.20;46.00;;;;;;;;;;5051984;28;20231;-66
2023/02/21 07:26:36;;;;;;;135.95;47.22;;;;;;;;;;5051844;28;20180;-66
2023/02/21 07:29:02;;;;;;;126.40;45.63;;;;;;;;;;5050437;28;20717;-66
2023/02/21 07:31:27;;;;;;;130.88;44.72;;;;;;;;;;5052586;28;20237;-66
2023/02/21 07:33:53;;;;;;;124.75;45.58;;;;;;;;;;5052819;28;20189;-67
2023/02/21 07:36:18;;;;;;;127.85;47.40;;;;;;;;;;5059294;28;20216;-66
2023/02/21 07:38:43;;;;;;;124.57;44.80;;;;;;;;;;5051909;28;20215;-66
2023/02/21 07:41:09;;;;;;;127.35;43.88;;;;;;;;;;5057184;28;20205;-66
2023/02/21 07:43:35;;;;;;;127.10;44.65;;;;;;;;;;5052520;28;20200;-67
2023/02/21 07:46:00;;;;;;;109.45;42.10;;;;;;;;;;5054251;28;20271;-66
2023/02/21 07:48:26;;;;;;;118.78;44.85;;;;;;;;;;5048402;28;20284;-66
2023/02/21 07:50:51;;;;;;;124.28;44.95;;;;;;;;;;5047288;28;20640;-66
2023/02/21 07:53:17;;;;;;;119.68;43.78;;;;;;;;;;5047105;28;20680;-66
2023/02/21 07:55:42;;;;;;;127.43;45.50;;;;;;;;;;5058083;28;20192;-66
2023/02/21 07:58:08;;;;;;;117.03;43.30;;;;;;;;;;5052180;28;20197;-66
2023/02/21 08:00:33;;;;;;;127.88;45.90;;;;;;;;;;5048677;28;20509;-66
2023/02/21 08:02:59;;;;;;;123.57;44.15;;;;;;;;;;5047500;28;20197;-66
2023/02/21 08:05:25;;;;;;;124.95;44.03;;;;;;;;;;5053355;28;20209;-66
2023/02/21 08:07:51;;;;;;;125.47;44.10;;;;;;;;;;5054868;28;20189;-66
2023/02/21 08:10:22;;;;;;;116.20;42.50;;;;;;;;;;5052450;28;20188;-66
2023/02/21 08:12:49;;;;;;;118.72;42.88;;;;;;;;;;5047360;28;20263;-66
2023/02/21 08:15:14;;;;;;;121.05;42.88;;;;;;;;;;5053686;28;20280;-67
2023/02/21 08:17:39;;;;;;;119.03;43.67;;;;;;;;;;5046871;28;20280;-66
2023/02/21 08:20:06;;;;;;;118.25;43.13;;;;;;;;;;5052940;28;20184;-67
2023/02/21 08:22:32;;;;;;;122.50;44.28;;;;;;;;;;5049012;28;20186;-67
2023/02/21 08:24:57;;;;;;;117.40;43.35;;;;;;;;;;5051777;28;20197;-67
2023/02/21 08:27:22;;;;;;;106.78;40.55;;;;;;;;;;5056733;28;20216;-67
2023/02/21 08:29:51;;;;;;;114.75;42.28;;;;;;;;;;5056027;28;20274;-66
2023/02/21 08:32:17;;;;;;;119.03;42.75;;;;;;;;;;5052551;28;20201;-67
2023/02/21 08:34:49;;;;;;;107.35;40.83;;;;;;;;;;5056263;28;20184;-67
2023/02/21 08:37:18;;;;;;;97.53;39.78;;;;;;;;;;5058576;28;20271;-67
2023/02/21 08:39:49;;;;;;;105.43;41.45;;;;;;;;;;5052316;28;20206;-66
2023/02/21 08:42:15;;;;;;;110.70;41.42;;;;;;;;;;5053330;28;20590;-66
2023/02/21 08:44:44;;;;;;;102.50;40.45;;;;;;;;;;5054862;28;20209;-66
2023/02/21 08:47:11;;;;;;;101.50;40.00;;;;;;;;;;5054670;28;20432;-67
2023/02/21 08:49:41;;;;;;;103.93;40.20;;;;;;;;;;5048877;28;20185;-67
2023/02/21 08:52:07;;;;;;;105.35;40.25;;;;;;;;;;5048696;28;20509;-67
2023/02/21 08:54:32;;;;;;;100.90;39.83;;;;;;;;;;5046510;28;20201;-67
2023/02/21 08:56:58;;;;;;;103.35;40.72;;;;;;;;;;5052370;28;20549;-67
2023/02/21 08:59:24;;;;;;;95.45;39.13;;;;;;;;;;5047991;28;20216;-67
2023/02/21 09:01:49;;;;;;;103.80;40.10;;;;;;;;;;5047856;28;20654;-67
2023/02/21 09:04:15;;;;;;;106.05;39.58;;;;;;;;;;5055101;28;20181;-66
2023/02/21 09:06:40;;;;;;;104.97;39.95;;;;;;;;;;5053348;28;20216;-66
2023/02/21 09:09:06;;;;;;;92.97;38.88;;;;;;;;;;5056402;28;20199;-66
2023/02/21 09:11:31;;;;;;;98.70;40.22;;;;;;;;;;5049719;28;20672;-66
2023/02/21 09:13:56;;;;;;;96.32;38.10;;;;;;;;;;5051236;28;20642;-67
2023/02/21 09:16:22;;;;;;;94.63;39.17;;;;;;;;;;5050250;28;20226;-66
2023/02/21 09:18:55;;;;;;;101.47;39.53;;;;;;;;;;5058107;28;20185;-66
2023/02/21 09:21:21;;;;;;;93.97;38.60;;;;;;;;;;5047957;28;20181;-66
2023/02/21 09:23:47;;;;;;;94.10;39.50;;;;;;;;;;5052234;28;20672;-66
2023/02/21 09:26:12;;;;;;;95.20;39.40;;;;;;;;;;5049377;28;20563;-66
2023/02/21 09:28:42;;;;;;;96.05;38.95;;;;;;;;;;5050258;28;20272;-66
2023/02/21 09:31:08;;;;;;;90.32;37.22;;;;;;;;;;5051905;28;20239;-66
2023/02/21 09:33:39;;;;;;;99.68;39.35;;;;;;;;;;5056623;28;20250;-67
2023/02/21 09:36:06;;;;;;;102.65;39.58;;;;;;;;;;5052684;28;20189;-67
2023/02/21 09:38:32;;;;;;;97.45;39.40;;;;;;;;;;5050985;28;20188;-66
2023/02/21 09:41:04;;;;;;;90.50;36.78;;;;;;;;;;5050178;28;20185;-67
2023/02/21 09:43:33;;;;;;;84.03;35.72;;;;;;;;;;5052107;28;20189;-67
2023/02/21 09:46:06;;;;;;;90.00;36.28;;;;;;;;;;5057539;28;20193;-66
2023/02/21 09:48:31;;;;;;;80.72;34.75;;;;;;;;;;5047629;28;20270;-67
2023/02/21 09:51:01;;;;;;;88.53;37.28;;;;;;;;;;5052392;28;20251;-67
2023/02/21 09:53:30;;;;;;;80.95;35.85;;;;;;;;;;5046815;28;20827;-67
2023/02/21 09:56:01;;;;;;;79.88;35.53;;;;;;;;;;5047401;28;20192;-67
2023/02/21 09:58:26;;;;;;;80.75;34.15;;;;;;;;;;5054980;28;20181;-67
2023/02/21 10:00:57;;;;;;;78.47;35.63;;;;;;;;;;5051093;28;20574;-66
2023/02/21 10:03:44;;;;;;;82.10;35.40;;;;;;;;;;5053467;28;20189;-67
2023/02/21 10:06:09;;;;;;;84.97;36.03;;;;;;;;;;5049906;28;20602;-67
2023/02/21 10:09:01;;;;;;;74.47;34.70;;;;;;;;;;5049243;28;20190;-67
2023/02/21 10:12:09;;;;;;;71.15;32.88;;;;;;;;;;5049005;28;20433;-67
2023/02/21 10:14:45;;;;;;;75.15;34.17;;;;;;;;;;5050236;28;20185;-66
2023/02/21 10:17:16;;;;;;;71.25;32.53;;;;;;;;;;5047846;28;20505;-66
2023/02/21 10:19:47;;;;;;;70.20;31.92;;;;;;;;;;5050634;28;20690;-67
2023/02/21 10:22:22;;;;;;;71.03;30.90;;;;;;;;;;5045317;28;20201;-67
2023/02/21 10:24:48;;;;;;;66.63;30.23;;;;;;;;;;5048566;28;20185;-67
2023/02/21 10:27:32;;;;;;;68.53;31.75;;;;;;;;;;5048540;28;20819;-67
2023/02/21 10:30:05;;;;;;;68.40;30.80;;;;;;;;;;5048483;28;20586;-66
2023/02/21 10:32:31;;;;;;;66.88;30.52;;;;;;;;;;5051175;28;20615;-67
2023/02/21 10:34:57;;;;;;;67.90;31.85;;;;;;;;;;5051845;28;20182;-67
2023/02/21 10:37:47;;;;;;;69.63;31.60;;;;;;;;;;5047211;28;20197;-67
2023/02/21 10:40:15;;;;;;;64.80;30.70;;;;;;;;;;5051376;28;20186;-68
2023/02/21 10:42:55;;;;;;;67.78;30.98;;;;;;;;;;5050256;28;20201;-67
2023/02/21 10:45:31;;;;;;;58.30;28.92;;;;;;;;;;5050816;28;20296;-66
2023/02/21 10:48:06;;;;;;;60.10;28.20;;;;;;;;;;5051812;28;20196;-66
2023/02/21 10:50:39;;;;;;;61.38;29.40;;;;;;;;;;5049004;28;20560;-66
2023/02/21 10:53:05;;;;;;;59.40;28.52;;;;;;;;;;5046067;28;20185;-66
2023/02/21 10:55:31;;;;;;;58.95;28.30;;;;;;;;;;5053526;28;20196;-67
2023/02/21 10:57:58;;;;;;;58.20;28.83;;;;;;;;;;5055176;28;20624;-66
2023/02/21 11:00:28;;;;;;;58.15;28.13;;;;;;;;;;5051503;28;20232;-67
2023/02/21 11:03:03;;;;;;;58.97;28.83;;;;;;;;;;5056681;28;20415;-67
2023/02/21 11:05:28;;;;;;;56.55;28.15;;;;;;;;;;5053274;28;20193;-67
2023/02/21 11:08:07;;;;;;;56.70;27.85;;;;;;;;;;5055778;28;20178;-67
2023/02/21 11:10:40;;;;;;;55.42;26.98;;;;;;;;;;5056663;28;20205;-67
2023/02/21 11:13:19;;;;;;;55.78;26.58;;;;;;;;;;5055360;28;20551;-67
2023/02/21 11:15:44;;;;;;;53.47;25.45;;;;;;;;;;5053601;28;20227;-66
2023/02/21 11:18:21;;;;;;;58.60;28.38;;;;;;;;;;5055376;28;20884;-67
2023/02/21 11:20:47;;;;;;;56.50;26.63;;;;;;;;;;5056371;28;20215;-68
2023/02/21 11:23:28;;;;;;;52.25;26.35;;;;;;;;;;5056315;28;20189;-67
2023/02/21 11:26:09;;;;;;;54.92;26.30;;;;;;;;;;5056020;28;20581;-67
2023/02/21 11:28:45;;;;;;;57.83;25.83;;;;;;;;;;5054053;28;20236;-66
2023/02/21 11:31:27;;;;;;;53.22;26.48;;;;;;;;;;5050653;28;20235;-66
2023/02/21 11:33:59;;;;;;;54.88;25.95;;;;;;;;;;5049819;28;20181;-66
2023/02/21 11:36:39;;;;;;;60.95;26.67;;;;;;;;;;5052538;28;20201;-66
2023/02/21 11:39:31;;;;;;;58.22;27.52;;;;;;;;;;5049512;28;20200;-68
2023/02/21 11:42:05;;;;;;;57.25;26.15;;;;;;;;;;5049045;28;20182;-66
2023/02/21 11:44:40;;;;;;;54.03;26.77;;;;;;;;;;5054524;28;20189;-66
2023/02/21 11:47:28;;;;;;;54.92;26.95;;;;;;;;;;5057864;28;20246;-66
2023/02/21 11:49:53;;;;;;;60.22;28.85;;;;;;;;;;5054851;28;20185;-67
2023/02/21 11:52:28;;;;;;;57.10;28.25;;;;;;;;;;5055357;28;20217;-66
2023/02/21 11:54:53;;;;;;;57.60;26.40;;;;;;;;;;5048894;28;20196;-66
2023/02/21 11:57:36;;;;;;;55.75;26.27;;;;;;;;;;5053227;28;20590;-66
2023/02/21 12:00:11;;;;;;;56.92;27.48;;;;;;;;;;5053119;28;20680;-68
2023/02/21 12:02:45;;;;;;;55.35;26.25;;;;;;;;;;5063277;28;20192;-66
2023/02/21 12:05:33;;;;;;;56.58;26.23;;;;;;;;;;5051773;28;20193;-67
2023/02/21 12:08:26;;;;;;;55.85;26.60;;;;;;;;;;5048734;28;20189;-66
2023/02/21 12:11:06;;;;;;;66.18;27.88;;;;;;;;;;5052620;28;20239;-67
2023/02/21 12:13:48;;;;;;;57.92;26.90;;;;;;;;;;5055460;28;20192;-67
2023/02/21 12:16:52;;;;;;;58.80;27.13;;;;;;;;;;5052540;28;20373;-66
2023/02/21 12:19:48;;;;;;;58.28;26.10;;;;;;;;;;5051530;28;20197;-66
2023/02/21 12:22:42;;;;;;;55.15;25.17;;;;;;;;;;5050507;28;20202;-66
2023/02/21 12:25:16;;;;;;;61.13;27.35;;;;;;;;;;5055966;28;20200;-66
2023/02/21 12:27:54;;;;;;;56.13;26.20;;;;;;;;;;5048670;28;20557;-66
2023/02/21 12:30:40;;;;;;;60.00;27.00;;;;;;;;;;5055014;28;20285;-66
2023/02/21 12:33:41;;;;;;;65.00;27.80;;;;;;;;;;5057380;28;20258;-66
2023/02/21 12:36:19;;;;;;;57.50;26.73;;;;;;;;;;5053866;28;20180;-67
2023/02/21 12:39:15;;;;;;;63.72;26.92;;;;;;;;;;5053804;28;20663;-67
2023/02/21 12:42:11;;;;;;;60.20;27.35;;;;;;;;;;5047587;28;20335;-67
2023/02/21 12:44:53;;;;;;;64.78;29.05;;;;;;;;;;5065827;28;20275;-67
2023/02/21 12:47:33;;;;;;;61.72;27.13;;;;;;;;;;5052221;28;20193;-67
2023/02/21 12:50:11;;;;;;;58.72;26.67;;;;;;;;;;5059108;28;20191;-66
2023/02/21 12:52:43;;;;;;;61.92;27.50;;;;;;;;;;5048451;28;20213;-67
2023/02/21 12:55:19;;;;;;;61.88;27.17;;;;;;;;;;5054118;28;20233;-67
2023/02/21 12:57:59;;;;;;;62.60;27.90;;;;;;;;;;5051471;28;20536;-67
2023/02/21 13:00:42;;;;;;;63.67;28.92;;;;;;;;;;5050253;28;20208;-67
2023/02/21 13:03:41;;;;;;;55.85;25.90;;;;;;;;;;5054983;28;20186;-67
2023/02/21 13:06:32;;;;;;;56.75;25.23;;;;;;;;;;5048687;28;20284;-66
2023/02/21 13:09:07;;;;;;;59.47;25.05;;;;;;;;;;5048501;28;20601;-67
2023/02/21 13:11:53;;;;;;;55.38;25.02;;;;;;;;;;5049055;28;20215;-67
2023/02/21 13:14:31;;;;;;;56.47;25.25;;;;;;;;;;5054851;28;20466;-67
2023/02/21 13:16:57;;;;;;;54.35;24.63;;;;;;;;;;5051240;28;20260;-67
2023/02/21 13:19:24;;;;;;;59.05;26.77;;;;;;;;;;5065489;28;20250;-67
2023/02/21 13:22:16;;;;;;;54.78;24.83;;;;;;;;;;5067996;28;20562;-67
2023/02/21 13:25:09;;;;;;;55.13;24.35;;;;;;;;;;5065658;28;20189;-67
2023/02/21 13:27:43;;;;;;;52.03;24.23;;;;;;;;;;5053644;28;20255;-67
2023/02/21 13:30:15;;;;;;;53.30;23.52;;;;;;;;;;5047562;28;20189;-67
2023/02/21 13:32:54;;;;;;;57.38;26.10;;;;;;;;;;5051708;28;20206;-67
2023/02/21 13:35:31;;;;;;;57.10;25.15;;;;;;;;;;5049661;28;20192;-67
2023/02/21 13:37:59;;;;;;;58.20;24.95;;;;;;;;;;5050167;28;20205;-67
2023/02/21 13:40:33;;;;;;;52.38;24.52;;;;;;;;;;5051222;28;20201;-67
2023/02/21 13:43:22;;;;;;;55.17;24.88;;;;;;;;;;5056149;28;20557;-67
2023/02/21 13:45:47;;;;;;;54.03;23.95;;;;;;;;;;5051108;28;20604;-67
2023/02/21 13:48:20;;;;;;;55.65;25.02;;;;;;;;;;5049938;28;20216;-67
2023/02/21 13:50:48;;;;;;;54.42;24.58;;;;;;;;;;5048484;28;20177;-67
2023/02/21 13:53:24;;;;;;;55.40;24.50;;;;;;;;;;5049989;28;20192;-67
2023/02/21 13:55:58;;;;;;;51.15;24.17;;;;;;;;;;5050924;28;20192;-67
2023/02/21 13:58:43;;;;;;;52.17;24.02;;;;;;;;;;5051394;28;20195;-66
2023/02/21 14:01:21;;;;;;;55.38;24.42;;;;;;;;;;5052838;28;20228;-67
2023/02/21 14:03:47;;;;;;;50.00;24.10;;;;;;;;;;5059397;28;20216;-67
2023/02/21 14:06:27;;;;;;;49.97;23.55;;;;;;;;;;5055772;28;20213;-67
2023/02/21 14:08:57;;;;;;;47.78;23.67;;;;;;;;;;5052997;28;20199;-67
2023/02/21 14:11:28;;;;;;;54.60;25.50;;;;;;;;;;5047373;28;20212;-67
2023/02/21 14:14:00;;;;;;;44.72;22.25;;;;;;;;;;5053068;28;20603;-67
2023/02/21 14:16:51;;;;;;;48.05;23.85;;;;;;;;;;5052710;28;20665;-67
2023/02/21 14:19:34;;;;;;;50.92;23.33;;;;;;;;;;5052348;28;20189;-67
2023/02/21 14:22:10;;;;;;;48.05;23.05;;;;;;;;;;5051944;28;20189;-67
2023/02/21 14:24:39;;;;;;;47.33;23.75;;;;;;;;;;5049305;28;20197;-67
2023/02/21 14:27:11;;;;;;;52.03;23.88;;;;;;;;;;5051255;28;20682;-67
2023/02/21 14:29:40;;;;;;;47.85;24.73;;;;;;;;;;5050038;28;20238;-67
2023/02/21 14:32:08;;;;;;;46.05;22.30;;;;;;;;;;5061355;28;20213;-67
2023/02/21 14:34:46;;;;;;;46.15;22.13;;;;;;;;;;5049133;28;20189;-67
2023/02/21 14:37:25;;;;;;;45.75;21.95;;;;;;;;;;5050341;28;20866;-67
2023/02/21 14:39:54;;;;;;;44.22;23.20;;;;;;;;;;5055499;28;20435;-66
2023/02/21 14:42:48;;;;;;;60.22;30.40;;;;;;;;;;5062849;28;20185;-66
2023/02/21 14:45:42;;;;;;;48.65;23.63;;;;;;;;;;5054199;28;20557;-66
2023/02/21 14:48:30;;;;;;;47.80;22.98;;;;;;;;;;5052643;28;20227;-67
2023/02/21 14:51:23;;;;;;;41.25;20.10;;;;;;;;;;5050316;28;20770;-68
2023/02/21 14:54:13;;;;;;;46.35;22.45;;;;;;;;;;5062949;28;20279;-68
2023/02/21 14:57:11;;;;;;;43.50;20.08;;;;;;;;;;5060609;28;20562;-67
2023/02/21 14:59:51;;;;;;;44.30;21.95;;;;;;;;;;5055215;28;20224;-68
2023/02/21 15:02:24;;;;;;;44.72;21.17;;;;;;;;;;5062682;28;20544;-68
2023/02/21 15:05:20;;;;;;;46.63;20.13;;;;;;;;;;5052247;28;20198;-68
2023/02/21 15:07:56;;;;;;;42.63;21.00;;;;;;;;;;5053649;28;20190;-68
2023/02/21 15:10:24;;;;;;;38.38;19.02;;;;;;;;;;5051819;28;20186;-68
2023/02/21 15:13:01;;;;;;;40.28;20.15;;;;;;;;;;5057228;28;20291;-68
2023/02/21 15:15:40;;;;;;;44.67;20.58;;;;;;;;;;5052216;28;20180;-69
2023/02/21 15:18:10;;;;;;;44.22;20.23;;;;;;;;;;5049456;28;20193;-68
2023/02/21 15:20:39;;;;;;;39.83;19.25;;;;;;;;;;5055648;28;20528;-67
2023/02/21 15:23:10;;;;;;;41.15;19.13;;;;;;;;;;5053756;28;20204;-68
2023/02/21 15:25:35;;;;;;;41.30;19.40;;;;;;;;;;5058151;28;20204;-68
2023/02/21 15:28:04;;;;;;;44.47;19.25;;;;;;;;;;5054980;28;20237;-68
2023/02/21 15:30:36;;;;;;;42.35;18.98;;;;;;;;;;5047738;28;20200;-68
2023/02/21 15:33:15;;;;;;;42.95;19.95;;;;;;;;;;5053399;28;20210;-68
2023/02/21 15:36:00;;;;;;;34.20;16.85;;;;;;;;;;5053141;28;20185;-68
2023/02/21 15:38:31;;;;;;;33.63;15.68;;;;;;;;;;5053872;28;20243;-67
2023/02/21 15:41:22;;;;;;;30.30;14.38;;;;;;;;;;5049615;28;20197;-68
2023/02/21 15:43:55;;;;;;;23.52;11.57;;;;;;;;;;5059858;28;20508;-67
2023/02/21 15:46:28;;;;;;;19.17;10.52;;;;;;;;;;5059217;28;20542;-68
2023/02/21 15:48:58;;;;;;;20.13;9.10;;;;;;;;;;5052461;28;20209;-67
2023/02/21 15:51:24;;;;;;;15.95;8.40;;;;;;;;;;5053800;28;20210;-67
2023/02/21 15:54:19;;;;;;;15.65;8.20;;;;;;;;;;5052607;28;20190;-67
2023/02/21 15:56:44;;;;;;;12.77;6.50;;;;;;;;;;5052522;28;20252;-68
2023/02/21 15:59:19;;;;;;;14.00;7.43;;;;;;;;;;5054474;28;20196;-68
2023/02/21 16:01:44;;;;;;;15.73;7.68;;;;;;;;;;5051786;28;20291;-68
2023/02/21 16:04:15;;;;;;;13.00;6.90;;;;;;;;;;5051895;28;20291;-68
2023/02/21 16:06:56;;;;;;;12.60;7.07;;;;;;;;;;5048017;28;20243;-67
2023/02/21 16:09:30;;;;;;;14.32;7.82;;;;;;;;;;5050863;28;20196;-67
2023/02/21 16:12:10;;;;;;;13.18;6.85;;;;;;;;;;5048305;28;20610;-66
2023/02/21 16:14:44;;;;;;;15.27;7.50;;;;;;;;;;5057024;28;20201;-67
2023/02/21 16:17:12;;;;;;;16.92;7.85;;;;;;;;;;5048852;28;20207;-67
2023/02/21 16:19:42;;;;;;;14.00;7.07;;;;;;;;;;5053391;28;20198;-67
2023/02/21 16:22:27;;;;;;;16.17;7.82;;;;;;;;;;5052371;28;20188;-67
2023/02/21 16:25:11;;;;;;;15.63;7.35;;;;;;;;;;5048148;28;20192;-67
2023/02/21 16:27:41;;;;;;;13.63;7.13;;;;;;;;;;5051642;28;20273;-67
2023/02/21 16:30:34;;;;;;;14.57;7.53;;;;;;;;;;5054306;28;20273;-66
2023/02/21 16:33:02;;;;;;;13.77;7.20;;;;;;;;;;5054633;28;20212;-66
2023/02/21 16:35:28;;;;;;;17.42;8.55;;;;;;;;;;5049735;28;20208;-67
2023/02/21 16:37:57;;;;;;;13.95;7.93;;;;;;;;;;5052106;28;20185;-67
2023/02/21 16:40:26;;;;;;;14.43;7.72;;;;;;;;;;5051257;28;20204;-67
2023/02/21 16:42:53;;;;;;;16.30;8.88;;;;;;;;;;5050982;28;20220;-67
2023/02/21 16:45:19;;;;;;;15.88;8.18;;;;;;;;;;5050463;28;20192;-68
2023/02/21 16:47:48;;;;;;;16.38;8.35;;;;;;;;;;5050105;28;20193;-67
2023/02/21 16:50:20;;;;;;;19.13;9.32;;;;;;;;;;5053477;28;20204;-67
2023/02/21 16:52:45;;;;;;;18.63;9.85;;;;;;;;;;5047758;28;20221;-67
2023/02/21 16:55:15;;;;;;;20.08;9.23;;;;;;;;;;5051877;28;20667;-68
2023/02/21 16:57:40;;;;;;;20.45;9.25;;;;;;;;;;5050305;28;20248;-68
2023/02/21 17:00:06;;;;;;;19.17;9.77;;;;;;;;;;5050179;28;20288;-68